Time;durP1;ratioP1;P1;durP2;ratioP2;P2;SDS_P1;SDS_P2;PMS_P1;PMS_P2;Temp;Humidity;BMP_temperature;BMP_pressure;BME280_temperature;BME280_humidity;BME280_pressure;Samples;Min_cycle;Max_cycle;Signal;HPM_P1;HPM_P2
2022/03/11 00:01:01;;;;;;;11.15;5.75;;;;;;;;;;5032986;28;20514;-70
2022/03/11 00:03:26;;;;;;;10.25;6.35;;;;;;;;;;5032994;28;20056;-71
2022/03/11 00:05:52;;;;;;;12.77;6.45;;;;;;;;;;5032399;28;20100;-71
2022/03/11 00:08:18;;;;;;;10.15;6.47;;;;;;;;;;5032876;28;20033;-71
2022/03/11 00:10:43;;;;;;;13.00;6.50;;;;;;;;;;5032825;28;20029;-71
2022/03/11 00:13:09;;;;;;;12.80;6.20;;;;;;;;;;5032821;28;20049;-71
2022/03/11 00:15:34;;;;;;;11.32;5.95;;;;;;;;;;5032715;28;20040;-70
2022/03/11 00:17:59;;;;;;;10.55;6.47;;;;;;;;;;5032547;28;20048;-70
2022/03/11 00:20:25;;;;;;;11.23;7.13;;;;;;;;;;5032883;28;20029;-71
2022/03/11 00:22:51;;;;;;;9.63;5.80;;;;;;;;;;5032797;28;20033;-71
2022/03/11 00:25:17;;;;;;;10.63;6.68;;;;;;;;;;5032506;28;20497;-70
2022/03/11 00:27:44;;;;;;;10.55;5.95;;;;;;;;;;5032789;28;20083;-70
2022/03/11 00:30:10;;;;;;;11.13;6.10;;;;;;;;;;5032496;28;20029;-71
2022/03/11 00:32:35;;;;;;;12.90;6.38;;;;;;;;;;5032529;28;20052;-71
2022/03/11 00:35:01;;;;;;;11.63;6.10;;;;;;;;;;5032494;28;20068;-70
2022/03/11 00:37:26;;;;;;;9.98;5.93;;;;;;;;;;5032863;28;20033;-71
2022/03/11 00:39:52;;;;;;;11.13;6.50;;;;;;;;;;5032198;28;20211;-71
2022/03/11 00:42:17;;;;;;;9.48;5.45;;;;;;;;;;5032242;28;20029;-70
2022/03/11 00:44:43;;;;;;;9.90;5.53;;;;;;;;;;5032110;28;20430;-71
2022/03/11 00:47:09;;;;;;;12.20;6.95;;;;;;;;;;5031985;28;20504;-70
2022/03/11 00:49:35;;;;;;;10.88;6.45;;;;;;;;;;5031993;28;20086;-70
2022/03/11 00:52:00;;;;;;;10.82;6.32;;;;;;;;;;5032103;28;20079;-71
2022/03/11 00:54:26;;;;;;;10.50;6.35;;;;;;;;;;5031991;28;20435;-71
2022/03/11 00:56:51;;;;;;;11.13;6.18;;;;;;;;;;5031985;28;20026;-70
2022/03/11 00:59:17;;;;;;;10.45;5.68;;;;;;;;;;5032211;28;20029;-71
2022/03/11 01:01:42;;;;;;;9.02;5.10;;;;;;;;;;5031881;28;20645;-71
2022/03/11 01:04:07;;;;;;;8.85;5.80;;;;;;;;;;5031904;28;20017;-71
2022/03/11 01:06:33;;;;;;;10.57;5.45;;;;;;;;;;5031944;28;20025;-71
2022/03/11 01:08:58;;;;;;;11.40;5.20;;;;;;;;;;5031851;28;20021;-71
2022/03/11 01:11:23;;;;;;;9.80;4.72;;;;;;;;;;5031715;28;20029;-71
2022/03/11 01:13:49;;;;;;;9.57;4.85;;;;;;;;;;5031601;28;20030;-71
2022/03/11 01:16:14;;;;;;;9.38;5.85;;;;;;;;;;5031029;28;20025;-71
2022/03/11 01:18:39;;;;;;;10.40;5.70;;;;;;;;;;5030806;28;20026;-71
2022/03/11 01:21:05;;;;;;;8.35;5.22;;;;;;;;;;5031491;28;20036;-71
2022/03/11 01:23:30;;;;;;;8.20;4.93;;;;;;;;;;5031777;28;20088;-70
2022/03/11 01:25:56;;;;;;;10.38;5.28;;;;;;;;;;5031503;28;20029;-71
2022/03/11 01:28:21;;;;;;;8.65;5.38;;;;;;;;;;5031490;28;20030;-71
2022/03/11 01:30:46;;;;;;;9.30;5.38;;;;;;;;;;5031396;28;20120;-71
2022/03/11 01:33:11;;;;;;;9.73;4.80;;;;;;;;;;5031266;28;20387;-71
2022/03/11 01:35:37;;;;;;;11.38;5.72;;;;;;;;;;5030822;28;20075;-71
2022/03/11 01:38:02;;;;;;;8.05;4.38;;;;;;;;;;5031169;28;20025;-70
2022/03/11 01:40:27;;;;;;;7.78;4.55;;;;;;;;;;5031201;28;20079;-71
2022/03/11 01:42:53;;;;;;;9.32;5.18;;;;;;;;;;5031148;28;20037;-71
2022/03/11 01:45:18;;;;;;;8.25;4.95;;;;;;;;;;5030699;28;20120;-71
2022/03/11 01:47:43;;;;;;;7.22;4.75;;;;;;;;;;5030887;28;20021;-71
2022/03/11 01:50:09;;;;;;;9.88;5.28;;;;;;;;;;5031006;28;20025;-71
2022/03/11 01:52:37;;;;;;;6.80;4.50;;;;;;;;;;5030838;28;20070;-71
2022/03/11 01:55:03;;;;;;;8.93;5.22;;;;;;;;;;5030711;28;20022;-71
2022/03/11 01:57:34;;;;;;;7.97;4.80;;;;;;;;;;5030974;28;20475;-71
2022/03/11 02:00:00;;;;;;;7.03;4.60;;;;;;;;;;5030520;28;20025;-71
2022/03/11 02:02:25;;;;;;;8.57;5.10;;;;;;;;;;5030889;28;20185;-71
2022/03/11 02:04:50;;;;;;;14.88;4.95;;;;;;;;;;5030688;28;20025;-71
2022/03/11 02:07:17;;;;;;;9.70;4.93;;;;;;;;;;5031011;28;20136;-72
2022/03/11 02:09:42;;;;;;;7.70;4.90;;;;;;;;;;5030492;28;20440;-73
2022/03/11 02:12:08;;;;;;;8.70;4.53;;;;;;;;;;5031076;28;20033;-73
2022/03/11 02:14:33;;;;;;;11.27;5.03;;;;;;;;;;5030410;28;20033;-72
2022/03/11 02:16:59;;;;;;;8.73;4.82;;;;;;;;;;5030988;28;20026;-73
2022/03/11 02:19:24;;;;;;;7.45;4.35;;;;;;;;;;5030250;28;20056;-73
2022/03/11 02:21:52;;;;;;;7.45;4.32;;;;;;;;;;5030469;28;20026;-73
2022/03/11 02:24:18;;;;;;;6.22;4.35;;;;;;;;;;5030602;28;20048;-73
2022/03/11 02:26:43;;;;;;;9.10;5.15;;;;;;;;;;5030275;28;20045;-73
2022/03/11 02:29:09;;;;;;;7.07;4.15;;;;;;;;;;5029890;28;20517;-73
2022/03/11 02:31:35;;;;;;;7.53;4.53;;;;;;;;;;5030150;28;20033;-72
2022/03/11 02:34:02;;;;;;;9.43;4.70;;;;;;;;;;5030095;28;20029;-73
2022/03/11 02:36:27;;;;;;;7.63;4.82;;;;;;;;;;5029973;28;20403;-73
2022/03/11 02:38:53;;;;;;;8.15;4.70;;;;;;;;;;5030291;28;20056;-73
2022/03/11 02:41:19;;;;;;;8.15;4.65;;;;;;;;;;5029952;28;20086;-73
2022/03/11 02:43:44;;;;;;;8.95;5.10;;;;;;;;;;5030069;28;20025;-72
2022/03/11 02:46:11;;;;;;;6.97;4.70;;;;;;;;;;5030070;28;20069;-72
2022/03/11 02:48:37;;;;;;;8.05;4.63;;;;;;;;;;5029738;28;20391;-73
2022/03/11 02:51:02;;;;;;;7.03;4.65;;;;;;;;;;5030029;28;20037;-71
2022/03/11 02:53:28;;;;;;;8.20;5.22;;;;;;;;;;5029826;28;20430;-71
2022/03/11 02:55:53;;;;;;;8.38;4.60;;;;;;;;;;5029851;28;20026;-71
2022/03/11 02:58:19;;;;;;;10.20;5.05;;;;;;;;;;5029594;28;20027;-71
2022/03/11 03:00:44;;;;;;;7.50;4.80;;;;;;;;;;5029866;28;20057;-71
2022/03/11 03:03:10;;;;;;;8.30;4.70;;;;;;;;;;5029949;28;20022;-71
2022/03/11 03:05:35;;;;;;;8.82;5.07;;;;;;;;;;5029799;28;20030;-71
2022/03/11 03:08:01;;;;;;;7.22;4.80;;;;;;;;;;5029615;28;20017;-71
2022/03/11 03:10:26;;;;;;;9.05;4.60;;;;;;;;;;5029749;28;20475;-71
2022/03/11 03:12:51;;;;;;;7.80;4.63;;;;;;;;;;5029623;28;20045;-71
2022/03/11 03:15:17;;;;;;;7.03;4.75;;;;;;;;;;5029671;28;20033;-71
2022/03/11 03:17:42;;;;;;;7.32;4.28;;;;;;;;;;5029748;28;20030;-71
2022/03/11 03:20:08;;;;;;;7.10;4.60;;;;;;;;;;5029948;28;20028;-71
2022/03/11 03:22:35;;;;;;;7.80;4.35;;;;;;;;;;5030104;28;20666;-71
2022/03/11 03:25:00;;;;;;;9.98;4.53;;;;;;;;;;5029852;28;20056;-71
2022/03/11 03:27:26;;;;;;;9.75;5.40;;;;;;;;;;5029979;28;20057;-71
2022/03/11 03:29:51;;;;;;;7.95;5.00;;;;;;;;;;5029396;28;20048;-71
2022/03/11 03:32:16;;;;;;;12.80;4.53;;;;;;;;;;5029485;28;20029;-71
2022/03/11 03:34:42;;;;;;;7.43;4.47;;;;;;;;;;5029572;28;20483;-71
2022/03/11 03:37:09;;;;;;;7.93;4.82;;;;;;;;;;5029525;28;20029;-71
2022/03/11 03:39:36;;;;;;;7.35;4.78;;;;;;;;;;5029419;28;20026;-71
2022/03/11 03:42:02;;;;;;;8.05;4.43;;;;;;;;;;5033135;28;20477;-71
2022/03/11 03:44:27;;;;;;;6.38;4.45;;;;;;;;;;5033284;28;20105;-71
2022/03/11 03:46:53;;;;;;;8.75;5.03;;;;;;;;;;5033133;28;20029;-71
2022/03/11 03:49:19;;;;;;;11.32;5.38;;;;;;;;;;5033025;28;20056;-71
2022/03/11 03:51:45;;;;;;;9.25;4.88;;;;;;;;;;5033168;28;20119;-71
2022/03/11 03:54:10;;;;;;;8.77;5.15;;;;;;;;;;5033135;28;20068;-71
2022/03/11 03:56:37;;;;;;;11.02;4.97;;;;;;;;;;5032738;28;20495;-71
2022/03/11 03:59:06;;;;;;;11.55;5.25;;;;;;;;;;5032765;28;20044;-71
2022/03/11 04:01:35;;;;;;;8.90;5.38;;;;;;;;;;5032911;28;20021;-71
2022/03/11 04:04:03;;;;;;;10.43;5.20;;;;;;;;;;5032973;28;20026;-71
2022/03/11 04:06:29;;;;;;;8.13;4.72;;;;;;;;;;5032748;28;20046;-71
2022/03/11 04:08:57;;;;;;;9.68;5.53;;;;;;;;;;5032512;28;20494;-71
2022/03/11 04:11:23;;;;;;;11.20;5.68;;;;;;;;;;5031539;28;20029;-71
2022/03/11 04:13:50;;;;;;;8.38;5.50;;;;;;;;;;5032822;28;20475;-71
2022/03/11 04:16:16;;;;;;;13.05;6.55;;;;;;;;;;5032743;28;20037;-71
2022/03/11 04:18:41;;;;;;;10.35;6.55;;;;;;;;;;5032376;28;20036;-71
2022/03/11 04:21:06;;;;;;;12.18;7.03;;;;;;;;;;5032618;28;20486;-71
2022/03/11 04:23:31;;;;;;;11.35;6.57;;;;;;;;;;5032408;28;20522;-71
2022/03/11 04:25:57;;;;;;;11.43;5.97;;;;;;;;;;5032435;28;20032;-71
2022/03/11 04:28:22;;;;;;;10.13;5.93;;;;;;;;;;5032183;28;20368;-71
2022/03/11 04:30:47;;;;;;;9.88;5.90;;;;;;;;;;5032322;28;20049;-71
2022/03/11 04:33:13;;;;;;;8.07;5.10;;;;;;;;;;5032236;28;20506;-71
2022/03/11 04:35:38;;;;;;;8.23;5.30;;;;;;;;;;5032352;28;20056;-71
2022/03/11 04:38:03;;;;;;;8.80;5.35;;;;;;;;;;5032018;28;20099;-71
2022/03/11 04:40:29;;;;;;;7.57;4.90;;;;;;;;;;5032256;28;20021;-71
2022/03/11 04:42:54;;;;;;;8.30;5.03;;;;;;;;;;5032109;28;20029;-71
2022/03/11 04:45:19;;;;;;;8.32;5.15;;;;;;;;;;5032236;28;20022;-71
2022/03/11 04:47:46;;;;;;;8.30;4.97;;;;;;;;;;5032082;28;20052;-71
2022/03/11 04:50:11;;;;;;;8.88;4.75;;;;;;;;;;5031961;28;20092;-71
2022/03/11 04:52:37;;;;;;;9.57;5.10;;;;;;;;;;5030651;28;20131;-71
2022/03/11 04:55:03;;;;;;;9.82;5.05;;;;;;;;;;5030408;28;20116;-71
2022/03/11 04:57:28;;;;;;;9.70;5.38;;;;;;;;;;5031717;28;20120;-71
2022/03/11 04:59:53;;;;;;;10.07;4.78;;;;;;;;;;5031726;28;20029;-71
2022/03/11 05:02:28;;;;;;;8.60;5.40;;;;;;;;;;5031989;28;20025;-71
2022/03/11 05:04:54;;;;;;;8.15;4.90;;;;;;;;;;5031815;28;20227;-71
2022/03/11 05:07:19;;;;;;;12.27;5.15;;;;;;;;;;5031925;28;20029;-71
2022/03/11 05:09:45;;;;;;;17.52;5.75;;;;;;;;;;5031535;28;20373;-71
2022/03/11 05:12:11;;;;;;;11.10;6.07;;;;;;;;;;5031819;28;20072;-71
2022/03/11 05:14:37;;;;;;;8.80;5.18;;;;;;;;;;5031465;28;20036;-71
2022/03/11 05:17:03;;;;;;;12.55;5.88;;;;;;;;;;5031901;28;20094;-71
2022/03/11 05:19:29;;;;;;;10.27;5.82;;;;;;;;;;5031209;28;20116;-71
2022/03/11 05:21:54;;;;;;;8.63;5.45;;;;;;;;;;5030263;28;20025;-71
2022/03/11 05:24:19;;;;;;;10.25;5.30;;;;;;;;;;5031475;28;20028;-71
2022/03/11 05:26:46;;;;;;;10.05;5.13;;;;;;;;;;5031439;28;20022;-71
2022/03/11 05:29:12;;;;;;;8.55;5.45;;;;;;;;;;5031312;28;20036;-71
2022/03/11 05:31:38;;;;;;;8.55;4.93;;;;;;;;;;5031272;28;20391;-71
2022/03/11 05:34:03;;;;;;;9.38;5.10;;;;;;;;;;5031379;28;20028;-71
2022/03/11 05:36:28;;;;;;;8.63;4.82;;;;;;;;;;5029654;28;20100;-71
2022/03/11 05:38:54;;;;;;;9.25;5.43;;;;;;;;;;5030902;28;20053;-72
2022/03/11 05:41:19;;;;;;;9.00;5.38;;;;;;;;;;5029755;28;20112;-71
2022/03/11 05:43:45;;;;;;;10.30;5.35;;;;;;;;;;5031250;28;20079;-71
2022/03/11 05:46:10;;;;;;;9.43;5.03;;;;;;;;;;5031043;28;20028;-71
2022/03/11 05:48:36;;;;;;;9.38;5.20;;;;;;;;;;5031017;28;20120;-71
2022/03/11 05:51:01;;;;;;;8.60;5.57;;;;;;;;;;5030903;28;20517;-71
2022/03/11 05:53:27;;;;;;;9.55;5.10;;;;;;;;;;5030609;28;20570;-71
2022/03/11 05:55:52;;;;;;;10.98;5.82;;;;;;;;;;5030754;28;20031;-71
2022/03/11 05:58:17;;;;;;;11.82;6.88;;;;;;;;;;5030516;28;20121;-71
2022/03/11 06:00:42;;;;;;;12.48;6.40;;;;;;;;;;5030824;28;20341;-71
2022/03/11 06:03:08;;;;;;;11.40;6.00;;;;;;;;;;5030397;28;20025;-71
2022/03/11 06:05:33;;;;;;;10.73;5.82;;;;;;;;;;5030545;28;20026;-71
2022/03/11 06:07:59;;;;;;;12.65;5.78;;;;;;;;;;5030223;28;20049;-72
2022/03/11 06:10:25;;;;;;;11.23;5.93;;;;;;;;;;5030883;28;20022;-72
2022/03/11 06:12:50;;;;;;;22.08;12.60;;;;;;;;;;5029961;28;20364;-71
2022/03/11 06:15:16;;;;;;;26.42;13.90;;;;;;;;;;5030138;28;20131;-72
2022/03/11 06:17:42;;;;;;;34.45;20.65;;;;;;;;;;5030409;28;20322;-71
2022/03/11 06:20:09;;;;;;;16.70;8.95;;;;;;;;;;5030125;28;20086;-71
2022/03/11 06:22:37;;;;;;;11.35;7.07;;;;;;;;;;5030361;28;20027;-72
2022/03/11 06:25:03;;;;;;;12.88;6.53;;;;;;;;;;5030180;28;20442;-71
2022/03/11 06:27:29;;;;;;;13.45;6.53;;;;;;;;;;5030358;28;20426;-71
2022/03/11 06:29:54;;;;;;;13.68;6.88;;;;;;;;;;5030052;28;20037;-71
2022/03/11 06:32:20;;;;;;;12.13;6.57;;;;;;;;;;5030192;28;20502;-71
2022/03/11 06:34:48;;;;;;;11.50;6.18;;;;;;;;;;5030057;28;20037;-71
2022/03/11 06:37:13;;;;;;;11.30;6.90;;;;;;;;;;5026115;28;20253;-72
2022/03/11 06:39:38;;;;;;;12.27;6.72;;;;;;;;;;5020326;28;20383;-72
2022/03/11 06:42:04;;;;;;;10.88;6.57;;;;;;;;;;5026198;28;20037;-72
2022/03/11 06:44:29;;;;;;;12.75;7.05;;;;;;;;;;5026668;28;20100;-71
2022/03/11 06:46:54;;;;;;;14.48;7.60;;;;;;;;;;5026156;28;20018;-71
2022/03/11 06:49:20;;;;;;;10.43;7.00;;;;;;;;;;5026887;28;20033;-72
2022/03/11 06:51:45;;;;;;;12.98;7.60;;;;;;;;;;5026376;28;20304;-72
2022/03/11 06:54:10;;;;;;;11.30;7.63;;;;;;;;;;5027885;28;20104;-71
2022/03/11 06:56:36;;;;;;;10.75;6.45;;;;;;;;;;5026271;28;20197;-71
2022/03/11 06:59:04;;;;;;;11.77;6.53;;;;;;;;;;5020087;28;20025;-71
2022/03/11 07:01:30;;;;;;;13.07;6.47;;;;;;;;;;5024847;28;20166;-71
2022/03/11 07:03:55;;;;;;;14.63;7.20;;;;;;;;;;5026401;28;20032;-71
2022/03/11 07:06:21;;;;;;;13.23;7.25;;;;;;;;;;5026028;28;20426;-71
2022/03/11 07:08:46;;;;;;;13.45;7.15;;;;;;;;;;5025721;28;20030;-71
2022/03/11 07:11:11;;;;;;;11.60;6.90;;;;;;;;;;5024757;28;20080;-71
2022/03/11 07:13:37;;;;;;;12.70;7.40;;;;;;;;;;5025253;28;20041;-71
2022/03/11 07:16:02;;;;;;;13.32;7.95;;;;;;;;;;5027861;28;20033;-71
2022/03/11 07:18:28;;;;;;;14.50;8.43;;;;;;;;;;5030345;28;20033;-71
2022/03/11 07:20:53;;;;;;;15.70;10.07;;;;;;;;;;5028881;28;20029;-71
2022/03/11 07:23:18;;;;;;;16.63;8.35;;;;;;;;;;5030132;28;20033;-71
2022/03/11 07:25:44;;;;;;;11.80;7.38;;;;;;;;;;5029993;28;20227;-71
2022/03/11 07:28:11;;;;;;;10.85;7.00;;;;;;;;;;5029716;28;20021;-70
2022/03/11 07:30:37;;;;;;;10.32;6.97;;;;;;;;;;5030152;28;20226;-71
2022/03/11 07:33:02;;;;;;;13.32;7.28;;;;;;;;;;5029662;28;20026;-71
2022/03/11 07:35:28;;;;;;;14.25;7.82;;;;;;;;;;5029093;28;20394;-71
2022/03/11 07:37:53;;;;;;;13.43;8.65;;;;;;;;;;5030095;28;20025;-71
2022/03/11 07:40:19;;;;;;;13.65;8.07;;;;;;;;;;5029449;28;20076;-71
2022/03/11 07:42:44;;;;;;;14.13;8.10;;;;;;;;;;5029516;28;20116;-71
2022/03/11 07:45:13;;;;;;;12.77;8.05;;;;;;;;;;5029992;28;20377;-72
2022/03/11 07:47:41;;;;;;;13.48;7.88;;;;;;;;;;5029387;28;20394;-72
2022/03/11 07:50:07;;;;;;;15.35;8.98;;;;;;;;;;5027540;28;20029;-72
2022/03/11 07:52:33;;;;;;;15.40;8.80;;;;;;;;;;5024774;28;20025;-73
2022/03/11 07:54:58;;;;;;;11.45;8.00;;;;;;;;;;5025744;28;20451;-72
2022/03/11 07:57:23;;;;;;;11.27;7.82;;;;;;;;;;5025321;28;20033;-72
2022/03/11 07:59:49;;;;;;;13.45;8.38;;;;;;;;;;5026990;28;20363;-72
2022/03/11 08:02:15;;;;;;;17.00;8.30;;;;;;;;;;5031480;28;20040;-73
2022/03/11 08:04:41;;;;;;;13.80;8.43;;;;;;;;;;5045984;28;20052;-72
2022/03/11 08:07:09;;;;;;;14.55;8.32;;;;;;;;;;5047521;28;20126;-72
2022/03/11 08:09:35;;;;;;;15.43;8.60;;;;;;;;;;5048152;28;20032;-73
2022/03/11 08:12:01;;;;;;;13.43;8.30;;;;;;;;;;5049336;28;20029;-73
2022/03/11 08:14:26;;;;;;;13.40;8.60;;;;;;;;;;5048863;28;20689;-71
2022/03/11 08:16:52;;;;;;;11.80;7.38;;;;;;;;;;5043973;22;20192;-73
2022/03/11 08:19:17;;;;;;;11.65;7.30;;;;;;;;;;5011454;28;20034;-75
2022/03/11 08:21:42;;;;;;;12.77;8.52;;;;;;;;;;5011958;28;20026;-73
2022/03/11 08:24:08;;;;;;;12.75;8.85;;;;;;;;;;5012031;28;20411;-71
2022/03/11 08:26:33;;;;;;;13.60;8.32;;;;;;;;;;5012020;28;20469;-72
2022/03/11 08:28:58;;;;;;;14.20;8.60;;;;;;;;;;5012404;28;20029;-74
2022/03/11 08:31:24;;;;;;;15.60;8.93;;;;;;;;;;5012794;28;20025;-74
2022/03/11 08:33:49;;;;;;;11.45;8.75;;;;;;;;;;5011262;28;20473;-75
2022/03/11 08:36:14;;;;;;;10.07;8.80;;;;;;;;;;5012366;28;20085;-74
2022/03/11 08:38:40;;;;;;;11.77;8.88;;;;;;;;;;5011707;28;20033;-73
2022/03/11 08:41:07;;;;;;;12.07;8.40;;;;;;;;;;5011648;28;20029;-74
2022/03/11 08:43:34;;;;;;;13.40;8.88;;;;;;;;;;5011652;28;20057;-73
2022/03/11 08:46:01;;;;;;;14.20;9.07;;;;;;;;;;5011815;28;21094;-74
2022/03/11 08:48:28;;;;;;;14.60;8.65;;;;;;;;;;5011281;28;20111;-75
2022/03/11 08:50:53;;;;;;;11.93;8.30;;;;;;;;;;5011021;28;20026;-74
2022/03/11 08:53:19;;;;;;;10.93;8.45;;;;;;;;;;5011569;28;20041;-74
2022/03/11 08:55:44;;;;;;;13.65;8.93;;;;;;;;;;5011145;28;20034;-74
2022/03/11 08:58:09;;;;;;;11.60;8.93;;;;;;;;;;5006521;28;20096;-73
2022/03/11 09:00:35;;;;;;;12.60;8.73;;;;;;;;;;4990437;28;20030;-76
2022/03/11 09:03:00;;;;;;;10.55;8.05;;;;;;;;;;4998288;28;20034;-70
2022/03/11 09:05:26;;;;;;;13.85;10.27;;;;;;;;;;5009159;28;20045;-70
2022/03/11 09:07:51;;;;;;;12.50;9.02;;;;;;;;;;5007582;28;20070;-70
2022/03/11 09:10:18;;;;;;;11.75;8.43;;;;;;;;;;5006738;28;20061;-69
2022/03/11 09:12:44;;;;;;;15.32;9.77;;;;;;;;;;5008732;28;20079;-71
2022/03/11 09:15:10;;;;;;;11.75;8.85;;;;;;;;;;5007671;28;20468;-70
2022/03/11 09:17:36;;;;;;;11.75;9.30;;;;;;;;;;5007751;28;20403;-69
2022/03/11 09:20:03;;;;;;;14.48;9.55;;;;;;;;;;5007712;28;20044;-71
2022/03/11 09:22:32;;;;;;;12.85;8.90;;;;;;;;;;5007755;28;20026;-72
2022/03/11 09:24:58;;;;;;;11.88;8.77;;;;;;;;;;5007790;28;20021;-69
2022/03/11 09:27:24;;;;;;;12.98;8.90;;;;;;;;;;5007674;28;20033;-70
2022/03/11 09:29:50;;;;;;;13.25;8.52;;;;;;;;;;5006786;28;20022;-70
2022/03/11 09:32:16;;;;;;;10.27;8.20;;;;;;;;;;5008024;28;20057;-69
2022/03/11 09:34:43;;;;;;;13.20;8.82;;;;;;;;;;5007933;28;20543;-69
2022/03/11 09:37:08;;;;;;;10.20;8.88;;;;;;;;;;5008527;28;20030;-72
2022/03/11 09:39:34;;;;;;;11.52;9.38;;;;;;;;;;5010870;28;20371;-70
2022/03/11 09:42:02;;;;;;;13.50;8.93;;;;;;;;;;5009702;28;20498;-70
2022/03/11 09:44:27;;;;;;;12.98;8.95;;;;;;;;;;5006531;28;20620;-69
2022/03/11 09:46:54;;;;;;;12.35;9.30;;;;;;;;;;5008288;28;20120;-70
2022/03/11 09:49:19;;;;;;;12.15;8.85;;;;;;;;;;5007266;28;20038;-73
2022/03/11 09:51:47;;;;;;;11.55;8.82;;;;;;;;;;5007462;28;20018;-72
2022/03/11 09:54:15;;;;;;;12.18;8.93;;;;;;;;;;5008049;28;20030;-71
2022/03/11 09:56:42;;;;;;;11.88;8.80;;;;;;;;;;5004421;28;20021;-72
2022/03/11 09:59:09;;;;;;;14.02;9.13;;;;;;;;;;5006332;28;20188;-71
2022/03/11 10:01:35;;;;;;;13.68;9.52;;;;;;;;;;5003225;28;20029;-71
2022/03/11 10:04:04;;;;;;;10.73;8.73;;;;;;;;;;5000990;28;20026;-71
2022/03/11 10:06:39;;;;;;;10.93;8.23;;;;;;;;;;4987513;28;20033;-72
2022/03/11 10:09:06;;;;;;;11.20;8.98;;;;;;;;;;4987291;28;20053;-71
2022/03/11 10:11:31;;;;;;;9.88;8.07;;;;;;;;;;4988153;28;20029;-72
2022/03/11 10:14:05;;;;;;;11.43;8.20;;;;;;;;;;5006060;28;20034;-72
2022/03/11 10:16:31;;;;;;;12.65;9.38;;;;;;;;;;5006954;28;20026;-71
2022/03/11 10:19:04;;;;;;;10.80;9.15;;;;;;;;;;5005627;28;20033;-72
2022/03/11 10:21:35;;;;;;;10.60;8.52;;;;;;;;;;5005789;28;20034;-72
2022/03/11 10:24:05;;;;;;;10.05;8.98;;;;;;;;;;5006250;28;20028;-71
2022/03/11 10:26:42;;;;;;;11.32;8.18;;;;;;;;;;5006800;28;20038;-73
2022/03/11 10:29:18;;;;;;;12.32;9.02;;;;;;;;;;5006858;28;20434;-75
2022/03/11 10:31:46;;;;;;;12.93;10.10;;;;;;;;;;5007036;28;20033;-72
2022/03/11 10:34:20;;;;;;;14.65;9.18;;;;;;;;;;5006885;28;20502;-70
2022/03/11 10:36:49;;;;;;;13.10;9.05;;;;;;;;;;5006439;28;20022;-70
2022/03/11 10:39:26;;;;;;;14.90;8.93;;;;;;;;;;5006823;28;20029;-72
2022/03/11 10:41:53;;;;;;;11.73;8.73;;;;;;;;;;5007470;28;20142;-73
2022/03/11 10:44:29;;;;;;;13.15;9.68;;;;;;;;;;5005825;28;20018;-70
2022/03/11 10:46:55;;;;;;;18.55;10.45;;;;;;;;;;5006662;28;20041;-70
2022/03/11 10:49:33;;;;;;;15.85;10.35;;;;;;;;;;5006567;28;20057;-70
2022/03/11 10:52:00;;;;;;;11.25;8.73;;;;;;;;;;5007131;28;20026;-71
2022/03/11 10:54:27;;;;;;;14.02;10.13;;;;;;;;;;5006848;28;20065;-71
2022/03/11 10:56:53;;;;;;;12.50;9.60;;;;;;;;;;5005938;28;20029;-71
2022/03/11 10:59:21;;;;;;;11.73;8.88;;;;;;;;;;5006541;28;20033;-70
2022/03/11 11:01:47;;;;;;;12.75;7.78;;;;;;;;;;5002318;28;20034;-72
2022/03/11 11:04:15;;;;;;;11.35;7.95;;;;;;;;;;5004754;28;20029;-72
2022/03/11 11:06:41;;;;;;;17.48;8.63;;;;;;;;;;5006275;28;20423;-72
2022/03/11 11:09:09;;;;;;;16.45;8.32;;;;;;;;;;5007363;28;20029;-71
2022/03/11 11:11:34;;;;;;;11.35;8.48;;;;;;;;;;5006569;28;20115;-72
2022/03/11 11:14:07;;;;;;;16.63;10.75;;;;;;;;;;5006806;28;20061;-71
2022/03/11 11:16:55;;;;;;;12.52;8.82;;;;;;;;;;5004792;28;20049;-71
2022/03/11 11:19:20;;;;;;;12.52;8.45;;;;;;;;;;4998732;28;20029;-71
2022/03/11 11:21:51;;;;;;;11.02;8.00;;;;;;;;;;5007358;28;20388;-72
2022/03/11 11:24:23;;;;;;;11.95;8.10;;;;;;;;;;5006353;28;20526;-73
2022/03/11 11:26:51;;;;;;;12.65;8.38;;;;;;;;;;5005164;28;20116;-71
2022/03/11 11:29:24;;;;;;;9.98;7.78;;;;;;;;;;4995884;28;20040;-71
2022/03/11 11:31:50;;;;;;;11.43;7.72;;;;;;;;;;4986959;28;20025;-71
2022/03/11 11:34:25;;;;;;;14.93;8.15;;;;;;;;;;5005261;28;20317;-71
2022/03/11 11:36:50;;;;;;;13.40;8.45;;;;;;;;;;5006083;28;20093;-72
2022/03/11 11:39:16;;;;;;;12.07;7.63;;;;;;;;;;5005380;28;20503;-71
2022/03/11 11:41:51;;;;;;;12.70;7.75;;;;;;;;;;5007086;28;20022;-71
2022/03/11 11:44:16;;;;;;;13.23;7.90;;;;;;;;;;5006048;28;20022;-75
2022/03/11 11:46:41;;;;;;;11.32;7.72;;;;;;;;;;5004524;28;20423;-71
2022/03/11 11:49:15;;;;;;;13.57;8.25;;;;;;;;;;5003698;28;20036;-72
2022/03/11 11:51:40;;;;;;;11.38;7.93;;;;;;;;;;5005564;28;20507;-71
2022/03/11 11:54:11;;;;;;;13.37;7.77;;;;;;;;;;5005743;28;20188;-72
2022/03/11 11:56:39;;;;;;;11.35;7.13;;;;;;;;;;5005807;28;20478;-70
2022/03/11 11:59:35;;;;;;;13.95;8.38;;;;;;;;;;5005258;28;20487;-71
2022/03/11 12:02:02;;;;;;;13.93;8.40;;;;;;;;;;5005704;28;20611;-71
2022/03/11 12:04:36;;;;;;;12.55;8.07;;;;;;;;;;5008887;28;20035;-74
2022/03/11 12:07:03;;;;;;;16.42;8.80;;;;;;;;;;5007924;28;20021;-72
2022/03/11 12:09:38;;;;;;;12.82;8.85;;;;;;;;;;5001025;28;20072;-72
2022/03/11 12:12:04;;;;;;;14.23;8.60;;;;;;;;;;5011704;28;20334;-71
2022/03/11 12:14:29;;;;;;;14.07;9.13;;;;;;;;;;5008311;28;20037;-70
2022/03/11 12:17:03;;;;;;;13.52;8.27;;;;;;;;;;5009658;28;20025;-70
2022/03/11 12:19:46;;;;;;;14.05;8.50;;;;;;;;;;5008818;28;20030;-71
2022/03/11 12:22:31;;;;;;;13.95;8.65;;;;;;;;;;5009577;28;20026;-76
2022/03/11 12:24:58;;;;;;;14.75;9.18;;;;;;;;;;5008000;28;20026;-70
2022/03/11 12:27:57;;;;;;;15.25;9.63;;;;;;;;;;5010140;28;20033;-71
2022/03/11 12:30:22;;;;;;;13.77;8.73;;;;;;;;;;5002848;28;20018;-71
2022/03/11 12:32:50;;;;;;;15.88;9.18;;;;;;;;;;5002089;28;20076;-71
2022/03/11 12:35:17;;;;;;;17.65;10.70;;;;;;;;;;5000774;28;20404;-71
2022/03/11 12:37:43;;;;;;;16.60;9.82;;;;;;;;;;5011531;28;20034;-71
2022/03/11 12:40:09;;;;;;;14.23;9.25;;;;;;;;;;5007692;28;20033;-71
2022/03/11 12:42:39;;;;;;;17.63;9.95;;;;;;;;;;5010138;28;20025;-70
2022/03/11 12:45:06;;;;;;;16.80;10.35;;;;;;;;;;5008899;28;20112;-71
2022/03/11 12:47:39;;;;;;;17.30;9.15;;;;;;;;;;5012980;28;20030;-70
2022/03/11 12:50:05;;;;;;;;;;;;;;;;;;5018424;28;20080;-70
2022/03/11 12:52:39;;;;;;;15.65;9.35;;;;;;;;;;5008879;28;20388;-71
2022/03/11 12:55:27;;;;;;;17.23;9.98;;;;;;;;;;5009432;28;20056;-72
2022/03/11 12:57:54;;;;;;;16.60;9.82;;;;;;;;;;5001442;28;20708;-71
2022/03/11 13:00:24;;;;;;;14.38;9.55;;;;;;;;;;5007854;28;20025;-71
2022/03/11 13:02:51;;;;;;;16.90;10.75;;;;;;;;;;5007830;28;20032;-71
2022/03/11 13:05:28;;;;;;;18.80;10.73;;;;;;;;;;5006982;28;20322;-71
2022/03/11 13:08:09;;;;;;;19.10;10.55;;;;;;;;;;5008783;28;20021;-71
2022/03/11 13:10:35;;;;;;;16.02;9.38;;;;;;;;;;5009102;28;20034;-72
2022/03/11 13:13:01;;;;;;;16.15;9.70;;;;;;;;;;5006644;28;20091;-72
2022/03/11 13:15:29;;;;;;;14.68;9.50;;;;;;;;;;5007287;28;20073;-72
2022/03/11 13:18:06;;;;;;;16.42;9.52;;;;;;;;;;5008256;28;20068;-72
2022/03/11 13:20:45;;;;;;;15.13;9.43;;;;;;;;;;5008300;28;20053;-75
2022/03/11 13:23:19;;;;;;;16.75;10.15;;;;;;;;;;5008819;28;20030;-71
2022/03/11 13:25:54;;;;;;;14.68;9.23;;;;;;;;;;5008020;28;20021;-72
2022/03/11 13:28:22;;;;;;;15.13;9.10;;;;;;;;;;4989218;28;20022;-72
2022/03/11 13:30:48;;;;;;;15.30;9.23;;;;;;;;;;4989366;28;20030;-73
2022/03/11 13:33:23;;;;;;;14.98;9.48;;;;;;;;;;5014782;28;20040;-72
2022/03/11 13:35:50;;;;;;;17.77;9.23;;;;;;;;;;5004441;28;20033;-73
2022/03/11 13:38:38;;;;;;;15.20;9.05;;;;;;;;;;4996431;28;20034;-72
2022/03/11 13:41:08;;;;;;;14.50;8.82;;;;;;;;;;5007577;28;20025;-72
2022/03/11 13:43:34;;;;;;;13.40;8.27;;;;;;;;;;5007742;28;20411;-71
2022/03/11 13:46:00;;;;;;;14.13;8.13;;;;;;;;;;5006231;28;20076;-73
2022/03/11 13:48:30;;;;;;;13.90;8.32;;;;;;;;;;5014227;28;20025;-73
2022/03/11 13:51:08;;;;;;;12.75;8.63;;;;;;;;;;5005504;28;20068;-72
2022/03/11 13:53:34;;;;;;;12.93;7.88;;;;;;;;;;4992665;28;20026;-72
2022/03/11 13:56:05;;;;;;;13.63;7.82;;;;;;;;;;5006871;28;20407;-71
2022/03/11 13:58:31;;;;;;;11.70;6.72;;;;;;;;;;5007703;28;20121;-73
2022/03/11 14:01:07;;;;;;;13.98;8.40;;;;;;;;;;5006742;28;20449;-72
2022/03/11 14:03:45;;;;;;;14.60;8.55;;;;;;;;;;5007628;28;20157;-71
2022/03/11 14:06:10;;;;;;;14.43;8.63;;;;;;;;;;5010439;28;20113;-72
2022/03/11 14:08:35;;;;;;;13.48;8.93;;;;;;;;;;5010843;28;20116;-72
2022/03/11 14:11:03;;;;;;;13.82;9.00;;;;;;;;;;5007836;28;20602;-71
2022/03/11 14:13:32;;;;;;;13.02;8.85;;;;;;;;;;5010776;28;20053;-71
2022/03/11 14:16:05;;;;;;;14.00;8.18;;;;;;;;;;5010679;28;20013;-70
2022/03/11 14:18:31;;;;;;;13.10;8.07;;;;;;;;;;5010901;28;20092;-71
2022/03/11 14:20:56;;;;;;;13.23;8.15;;;;;;;;;;5010976;28;20030;-71
2022/03/11 14:23:21;;;;;;;14.35;8.38;;;;;;;;;;5011058;28;20430;-77
2022/03/11 14:25:47;;;;;;;15.80;8.65;;;;;;;;;;5009981;28;20022;-72
2022/03/11 14:28:13;;;;;;;12.07;8.20;;;;;;;;;;5010481;28;20029;-72
2022/03/11 14:30:38;;;;;;;12.55;8.32;;;;;;;;;;5010652;28;20021;-72
2022/03/11 14:33:04;;;;;;;13.48;8.02;;;;;;;;;;5010627;28;20044;-71